RYR8351 EGSS-LEAM
Flight info
| Callsign | RYR8351 |
|---|---|
| Flight time | 2h 27m |
| Altitude | 34000 |
| Route | NUGBO M183 SILVA Q41 SAM N63 LELNA/N0440F350 DCT NOVAN DCT NENEM P152 PPN N10 CJN L27 BLN N865 ESILA |
| Aircraft | B738/M-SDE3FGILRWY/SB1 |
Departure
| Time | 2026-04-16 12:35 |
|---|---|
| Airport | London Stansted Airport (EGSS) |
Arrival
| Time | 2026-04-16 15:03 |
|---|---|
| Airport | Almería Airport (LEAM) |
| Time | Latitude | Longitude | Altitude | Speed | Heading |
|---|---|---|---|---|---|
| 2026-04-16 12:00 | 51.89110 | 0.25576 | 352 ft | 0 kts | 42° |
| 2026-04-16 12:25 | 51.89110 | 0.25575 | 351 ft | 0 kts | 42° |
| 2026-04-16 12:25 | 51.89101 | 0.25563 | 351 ft | 3 kts | 42° |
| 2026-04-16 12:25 | 51.89087 | 0.25541 | 358 ft | 3 kts | 42° |
| 2026-04-16 12:26 | 51.89073 | 0.25527 | 354 ft | 3 kts | 353° |
| 2026-04-16 12:26 | 51.89062 | 0.25532 | 351 ft | 3 kts | 324° |
| 2026-04-16 12:26 | 51.89053 | 0.25544 | 351 ft | 2 kts | 313° |
| 2026-04-16 12:26 | 51.89042 | 0.25564 | 361 ft | 2 kts | 313° |
| 2026-04-16 12:27 | 51.89039 | 0.25567 | 351 ft | 0 kts | 313° |
| 2026-04-16 12:28 | 51.89045 | 0.25558 | 361 ft | 3 kts | 313° |
| 2026-04-16 12:29 | 51.89070 | 0.25515 | 351 ft | 9 kts | 313° |
| 2026-04-16 12:29 | 51.89128 | 0.25413 | 355 ft | 15 kts | 313° |
| 2026-04-16 12:29 | 51.89190 | 0.25272 | 351 ft | 15 kts | 298° |
| 2026-04-16 12:29 | 51.89271 | 0.25201 | 353 ft | 13 kts | 21° |
| 2026-04-16 12:30 | 51.89340 | 0.25296 | 351 ft | 13 kts | 43° |
| 2026-04-16 12:30 | 51.89413 | 0.25346 | 351 ft | 13 kts | 330° |
| 2026-04-16 12:30 | 51.89471 | 0.25251 | 354 ft | 9 kts | 311° |
| 2026-04-16 12:30 | 51.89489 | 0.25201 | 361 ft | 0 kts | 285° |
| 2026-04-16 12:31 | 51.89489 | 0.25199 | 356 ft | 0 kts | 285° |
| 2026-04-16 12:31 | 51.89491 | 0.25189 | 356 ft | 3 kts | 285° |
| 2026-04-16 12:32 | 51.89494 | 0.25117 | 357 ft | 8 kts | 268° |
| 2026-04-16 12:32 | 51.89498 | 0.25015 | 355 ft | 9 kts | 282° |
| 2026-04-16 12:32 | 51.89480 | 0.24948 | 352 ft | 0 kts | 222° |
| 2026-04-16 12:35 | 51.89415 | 0.24851 | 353 ft | 43 kts | 223° |
| 2026-04-16 12:35 | 51.89016 | 0.24254 | 349 ft | 110 kts | 223° |
| 2026-04-16 12:35 | 51.88312 | 0.23201 | 397 ft | 160 kts | 222° |
| 2026-04-16 12:35 | 51.87456 | 0.21915 | 973 ft | 174 kts | 223° |
| 2026-04-16 12:36 | 51.86586 | 0.20608 | 1974 ft | 169 kts | 224° |
| 2026-04-16 12:36 | 51.85660 | 0.19209 | 2365 ft | 197 kts | 225° |
| 2026-04-16 12:36 | 51.84598 | 0.17611 | 2725 ft | 216 kts | 224° |
| 2026-04-16 12:36 | 51.83494 | 0.15852 | 3131 ft | 233 kts | 235° |
| 2026-04-16 12:37 | 51.83030 | 0.13323 | 3700 ft | 244 kts | 273° |
| 2026-04-16 12:37 | 51.83645 | 0.10756 | 3977 ft | 254 kts | 307° |
| 2026-04-16 12:37 | 51.85134 | 0.09195 | 3998 ft | 264 kts | 340° |
| 2026-04-16 12:37 | 51.86968 | 0.08694 | 4001 ft | 272 kts | 353° |
| 2026-04-16 12:38 | 51.88854 | 0.08524 | 4000 ft | 271 kts | 352° |
| 2026-04-16 12:38 | 51.90703 | 0.08234 | 3988 ft | 269 kts | 349° |
| 2026-04-16 12:38 | 51.92558 | 0.07858 | 3996 ft | 268 kts | 348° |
| 2026-04-16 12:38 | 51.94428 | 0.07411 | 4003 ft | 268 kts | 347° |
| 2026-04-16 12:39 | 51.96240 | 0.06910 | 3992 ft | 267 kts | 341° |
| 2026-04-16 12:39 | 51.97781 | 0.05440 | 3994 ft | 255 kts | 305° |
| 2026-04-16 12:39 | 51.98421 | 0.02871 | 3998 ft | 245 kts | 270° |
| 2026-04-16 12:39 | 51.98313 | 0.00135 | 3997 ft | 244 kts | 258° |
| 2026-04-16 12:40 | 51.97959 | -0.02563 | 4029 ft | 247 kts | 256° |
| 2026-04-16 12:40 | 51.97561 | -0.05400 | 4233 ft | 272 kts | 256° |
| 2026-04-16 12:40 | 51.97120 | -0.08539 | 4584 ft | 296 kts | 256° |
| 2026-04-16 12:40 | 51.96677 | -0.11828 | 5445 ft | 300 kts | 257° |
| 2026-04-16 12:41 | 51.96237 | -0.15167 | 6327 ft | 304 kts | 257° |
| 2026-04-16 12:41 | 51.95611 | -0.18442 | 6786 ft | 305 kts | 241° |
| 2026-04-16 12:41 | 51.94212 | -0.21061 | 7108 ft | 319 kts | 220° |
| 2026-04-16 12:41 | 51.92345 | -0.23287 | 7141 ft | 345 kts | 217° |
| 2026-04-16 12:42 | 51.90379 | -0.25562 | 7127 ft | 349 kts | 217° |
| 2026-04-16 12:42 | 51.88396 | -0.27848 | 7127 ft | 350 kts | 217° |
| 2026-04-16 12:42 | 51.86418 | -0.30136 | 7134 ft | 350 kts | 217° |
| 2026-04-16 12:42 | 51.84421 | -0.32457 | 7599 ft | 356 kts | 217° |
| 2026-04-16 12:43 | 51.82404 | -0.34808 | 8341 ft | 360 kts | 217° |
| 2026-04-16 12:43 | 51.80371 | -0.37184 | 8673 ft | 360 kts | 217° |
| 2026-04-16 12:43 | 51.78335 | -0.39566 | 9076 ft | 363 kts | 217° |
| 2026-04-16 12:43 | 51.76284 | -0.41965 | 9417 ft | 366 kts | 217° |
| 2026-04-16 12:44 | 51.74219 | -0.44380 | 9825 ft | 368 kts | 217° |
| 2026-04-16 12:44 | 51.72130 | -0.46821 | 10425 ft | 373 kts | 218° |
| 2026-04-16 12:44 | 51.70060 | -0.49236 | 11557 ft | 360 kts | 218° |
| 2026-04-16 12:44 | 51.68063 | -0.51562 | 12854 ft | 349 kts | 218° |
| 2026-04-16 12:45 | 51.66120 | -0.53822 | 13996 ft | 342 kts | 218° |
| 2026-04-16 12:45 | 51.64191 | -0.56068 | 14711 ft | 344 kts | 218° |
| 2026-04-16 12:45 | 51.62238 | -0.58342 | 15316 ft | 349 kts | 218° |
| 2026-04-16 12:45 | 51.60299 | -0.60597 | 15944 ft | 353 kts | 218° |
| 2026-04-16 12:46 | 51.58300 | -0.62918 | 16596 ft | 356 kts | 218° |
| 2026-04-16 12:46 | 51.56282 | -0.65258 | 17236 ft | 359 kts | 218° |
| 2026-04-16 12:46 | 51.54244 | -0.67618 | 17880 ft | 363 kts | 218° |
| 2026-04-16 12:46 | 51.52191 | -0.69992 | 18512 ft | 366 kts | 218° |
| 2026-04-16 12:47 | 51.50114 | -0.72391 | 19062 ft | 369 kts | 219° |
| 2026-04-16 12:47 | 51.48019 | -0.74807 | 19634 ft | 371 kts | 219° |
| 2026-04-16 12:47 | 51.45914 | -0.77232 | 20204 ft | 374 kts | 219° |
| 2026-04-16 12:47 | 51.43798 | -0.79667 | 20753 ft | 376 kts | 219° |
| 2026-04-16 12:48 | 51.41663 | -0.82121 | 21297 ft | 379 kts | 219° |
| 2026-04-16 12:48 | 51.39516 | -0.84587 | 21837 ft | 381 kts | 219° |
| 2026-04-16 12:48 | 51.37353 | -0.87068 | 22358 ft | 384 kts | 219° |
| 2026-04-16 12:48 | 51.35172 | -0.89566 | 22884 ft | 387 kts | 219° |
| 2026-04-16 12:49 | 51.33008 | -0.92042 | 23381 ft | 389 kts | 219° |
| 2026-04-16 12:49 | 51.30800 | -0.94565 | 23843 ft | 392 kts | 219° |
| 2026-04-16 12:49 | 51.28574 | -0.97106 | 24291 ft | 393 kts | 219° |
| 2026-04-16 12:49 | 51.26352 | -0.99639 | 24764 ft | 394 kts | 220° |
| 2026-04-16 12:50 | 51.24116 | -1.02184 | 25190 ft | 396 kts | 220° |
| 2026-04-16 12:50 | 51.21869 | -1.04740 | 25592 ft | 398 kts | 220° |
| 2026-04-16 12:50 | 51.19610 | -1.07306 | 25996 ft | 399 kts | 220° |
| 2026-04-16 12:50 | 51.17342 | -1.09879 | 26404 ft | 401 kts | 220° |
| 2026-04-16 12:51 | 51.15061 | -1.12463 | 26793 ft | 403 kts | 220° |
| 2026-04-16 12:51 | 51.12776 | -1.15049 | 27183 ft | 405 kts | 220° |
| 2026-04-16 12:51 | 51.10476 | -1.17649 | 27570 ft | 406 kts | 220° |
| 2026-04-16 12:51 | 51.08164 | -1.20259 | 27930 ft | 408 kts | 221° |
| 2026-04-16 12:52 | 51.05842 | -1.22878 | 28294 ft | 410 kts | 221° |
| 2026-04-16 12:52 | 51.03509 | -1.25505 | 28632 ft | 412 kts | 221° |
| 2026-04-16 12:52 | 51.01164 | -1.28143 | 28978 ft | 414 kts | 221° |
| 2026-04-16 12:52 | 50.98811 | -1.30787 | 29322 ft | 415 kts | 221° |
| 2026-04-16 12:53 | 50.96447 | -1.33436 | 29656 ft | 417 kts | 220° |
| 2026-04-16 12:53 | 50.93975 | -1.35880 | 30070 ft | 421 kts | 214° |
| 2026-04-16 12:53 | 50.91363 | -1.37974 | 30572 ft | 419 kts | 213° |
| 2026-04-16 12:53 | 50.88755 | -1.39996 | 30988 ft | 417 kts | 213° |
| 2026-04-16 12:54 | 50.86156 | -1.42016 | 31349 ft | 415 kts | 213° |
| 2026-04-16 12:54 | 50.83573 | -1.44046 | 31704 ft | 414 kts | 213° |
| 2026-04-16 12:54 | 50.80999 | -1.46088 | 32042 ft | 413 kts | 213° |
| 2026-04-16 12:54 | 50.78434 | -1.48131 | 32403 ft | 412 kts | 214° |
| 2026-04-16 12:55 | 50.75881 | -1.50165 | 32793 ft | 410 kts | 214° |
| 2026-04-16 12:55 | 50.73338 | -1.52186 | 33159 ft | 408 kts | 214° |
| 2026-04-16 12:55 | 50.70800 | -1.54198 | 33490 ft | 408 kts | 214° |
| 2026-04-16 12:55 | 50.68264 | -1.56203 | 33811 ft | 407 kts | 214° |
| 2026-04-16 12:56 | 50.65769 | -1.58172 | 34167 ft | 406 kts | 214° |
| 2026-04-16 12:56 | 50.63248 | -1.60159 | 34427 ft | 405 kts | 213° |
| 2026-04-16 12:56 | 50.60723 | -1.62150 | 34586 ft | 407 kts | 213° |
| 2026-04-16 12:56 | 50.58185 | -1.64151 | 34779 ft | 408 kts | 213° |
| 2026-04-16 12:57 | 50.55653 | -1.66142 | 35058 ft | 407 kts | 213° |
| 2026-04-16 12:57 | 50.53124 | -1.68127 | 35333 ft | 406 kts | 213° |
| 2026-04-16 12:57 | 50.50598 | -1.70108 | 35556 ft | 406 kts | 213° |
| 2026-04-16 12:57 | 50.48070 | -1.72090 | 35765 ft | 406 kts | 213° |
| 2026-04-16 12:58 | 50.45542 | -1.74069 | 36000 ft | 406 kts | 213° |
| 2026-04-16 12:58 | 50.43017 | -1.76043 | 36248 ft | 405 kts | 213° |
| 2026-04-16 12:58 | 50.40495 | -1.78012 | 36441 ft | 405 kts | 213° |
| 2026-04-16 12:58 | 50.37973 | -1.79979 | 36647 ft | 405 kts | 213° |
| 2026-04-16 12:59 | 50.36267 | -1.81309 | 36779 ft | 405 kts | 213° |
| 2026-04-16 12:59 | 50.33744 | -1.83273 | 36999 ft | 405 kts | 213° |
| 2026-04-16 12:59 | 50.31225 | -1.85231 | 37211 ft | 404 kts | 212° |
| 2026-04-16 13:00 | 50.26146 | -1.89177 | 37206 ft | 411 kts | 212° |
| 2026-04-16 13:00 | 50.20976 | -1.93183 | 37222 ft | 418 kts | 212° |
| 2026-04-16 13:01 | 50.15770 | -1.97203 | 37197 ft | 422 kts | 212° |
| 2026-04-16 13:01 | 50.10443 | -2.01305 | 37208 ft | 426 kts | 212° |
| 2026-04-16 13:02 | 50.05151 | -2.05372 | 37205 ft | 428 kts | 212° |
| 2026-04-16 13:02 | 49.99806 | -2.09469 | 37211 ft | 428 kts | 212° |
| 2026-04-16 13:03 | 49.94173 | -2.12708 | 37199 ft | 435 kts | 202° |
| 2026-04-16 13:03 | 49.88374 | -2.15352 | 37206 ft | 434 kts | 202° |
| 2026-04-16 13:04 | 49.82581 | -2.18006 | 37208 ft | 434 kts | 202° |
| 2026-04-16 13:04 | 49.76803 | -2.20678 | 37212 ft | 433 kts | 202° |
| 2026-04-16 13:05 | 49.71037 | -2.23352 | 37192 ft | 432 kts | 202° |
| 2026-04-16 13:05 | 49.65279 | -2.26018 | 37217 ft | 431 kts | 202° |
| 2026-04-16 13:06 | 49.59532 | -2.28672 | 37210 ft | 431 kts | 202° |
| 2026-04-16 13:06 | 49.53794 | -2.31315 | 37214 ft | 430 kts | 202° |
| 2026-04-16 13:07 | 49.48065 | -2.33948 | 37194 ft | 429 kts | 201° |
| 2026-04-16 13:07 | 49.42348 | -2.36568 | 37216 ft | 429 kts | 201° |
| 2026-04-16 13:08 | 49.36619 | -2.39188 | 37213 ft | 430 kts | 201° |
| 2026-04-16 13:08 | 49.30888 | -2.41803 | 37209 ft | 430 kts | 201° |
| 2026-04-16 13:09 | 49.25154 | -2.44412 | 37210 ft | 430 kts | 201° |
| 2026-04-16 13:09 | 49.19419 | -2.47014 | 37217 ft | 430 kts | 201° |
| 2026-04-16 13:10 | 49.13683 | -2.49612 | 37211 ft | 430 kts | 201° |
| 2026-04-16 13:10 | 49.07940 | -2.52206 | 37219 ft | 430 kts | 201° |
| 2026-04-16 13:11 | 49.02194 | -2.54795 | 37204 ft | 430 kts | 201° |
| 2026-04-16 13:11 | 48.96447 | -2.57379 | 37210 ft | 431 kts | 201° |
| 2026-04-16 13:12 | 48.90696 | -2.59958 | 37214 ft | 431 kts | 201° |
| 2026-04-16 13:12 | 48.84939 | -2.62534 | 37224 ft | 431 kts | 201° |
| 2026-04-16 13:13 | 48.79189 | -2.65100 | 37213 ft | 431 kts | 201° |
| 2026-04-16 13:13 | 48.73436 | -2.67661 | 37215 ft | 430 kts | 201° |
| 2026-04-16 13:14 | 48.67727 | -2.70197 | 37217 ft | 430 kts | 201° |
| 2026-04-16 13:14 | 48.61982 | -2.72743 | 37206 ft | 430 kts | 201° |
| 2026-04-16 13:15 | 48.56233 | -2.75285 | 37210 ft | 430 kts | 201° |
| 2026-04-16 13:15 | 48.50496 | -2.77815 | 37221 ft | 430 kts | 201° |
| 2026-04-16 13:16 | 48.44754 | -2.80342 | 37213 ft | 430 kts | 201° |
| 2026-04-16 13:16 | 48.39013 | -2.82862 | 37200 ft | 430 kts | 201° |
| 2026-04-16 13:17 | 48.33273 | -2.85376 | 37227 ft | 430 kts | 201° |
| 2026-04-16 13:17 | 48.27523 | -2.87888 | 37227 ft | 430 kts | 200° |
| 2026-04-16 13:18 | 48.21771 | -2.90395 | 37231 ft | 430 kts | 200° |
| 2026-04-16 13:18 | 48.16018 | -2.92897 | 37224 ft | 430 kts | 200° |
| 2026-04-16 13:19 | 48.10267 | -2.95392 | 37225 ft | 430 kts | 200° |
| 2026-04-16 13:19 | 48.04520 | -2.97879 | 37268 ft | 430 kts | 200° |
| 2026-04-16 13:20 | 47.98762 | -3.00366 | 37251 ft | 431 kts | 200° |
| 2026-04-16 13:20 | 47.93003 | -3.02847 | 37237 ft | 430 kts | 200° |
| 2026-04-16 13:21 | 47.87255 | -3.05318 | 37241 ft | 429 kts | 200° |
| 2026-04-16 13:21 | 47.81514 | -3.07779 | 37249 ft | 429 kts | 200° |
| 2026-04-16 13:22 | 47.75779 | -3.10233 | 37225 ft | 429 kts | 200° |
| 2026-04-16 13:22 | 47.70042 | -3.12683 | 37237 ft | 429 kts | 200° |
| 2026-04-16 13:23 | 47.64307 | -3.15126 | 37244 ft | 429 kts | 200° |
| 2026-04-16 13:23 | 47.58571 | -3.17563 | 37250 ft | 429 kts | 200° |
| 2026-04-16 13:24 | 47.52875 | -3.19978 | 37238 ft | 429 kts | 200° |
| 2026-04-16 13:24 | 47.47142 | -3.22403 | 37256 ft | 428 kts | 200° |
| 2026-04-16 13:25 | 47.41407 | -3.24824 | 37255 ft | 429 kts | 200° |
| 2026-04-16 13:25 | 47.35626 | -3.27258 | 37258 ft | 429 kts | 200° |
| 2026-04-16 13:26 | 47.29884 | -3.29670 | 37248 ft | 429 kts | 200° |
| 2026-04-16 13:26 | 47.24179 | -3.32062 | 37265 ft | 429 kts | 200° |
| 2026-04-16 13:27 | 47.18304 | -3.33796 | 37258 ft | 437 kts | 187° |
| 2026-04-16 13:27 | 47.12180 | -3.33454 | 37244 ft | 441 kts | 182° |
| 2026-04-16 13:28 | 47.06045 | -3.32993 | 37262 ft | 441 kts | 182° |
| 2026-04-16 13:28 | 46.99906 | -3.32574 | 37256 ft | 442 kts | 182° |
| 2026-04-16 13:29 | 46.93766 | -3.32182 | 37256 ft | 442 kts | 182° |
| 2026-04-16 13:29 | 46.87626 | -3.31798 | 37258 ft | 441 kts | 182° |
| 2026-04-16 13:30 | 46.81492 | -3.31417 | 37260 ft | 442 kts | 182° |
| 2026-04-16 13:30 | 46.75348 | -3.31034 | 37258 ft | 442 kts | 182° |
| 2026-04-16 13:31 | 46.69201 | -3.30652 | 37261 ft | 442 kts | 182° |
| 2026-04-16 13:31 | 46.63052 | -3.30271 | 37258 ft | 442 kts | 182° |
| 2026-04-16 13:32 | 46.56901 | -3.29890 | 37264 ft | 442 kts | 182° |
| 2026-04-16 13:32 | 46.50749 | -3.29510 | 37245 ft | 442 kts | 182° |
| 2026-04-16 13:33 | 46.44599 | -3.29131 | 37258 ft | 442 kts | 182° |
| 2026-04-16 13:33 | 46.38450 | -3.28752 | 37265 ft | 442 kts | 182° |
| 2026-04-16 13:34 | 46.32305 | -3.28376 | 37264 ft | 442 kts | 182° |
| 2026-04-16 13:34 | 46.26153 | -3.27999 | 37260 ft | 442 kts | 182° |
| 2026-04-16 13:35 | 46.20001 | -3.27623 | 37266 ft | 443 kts | 182° |
| 2026-04-16 13:35 | 46.13886 | -3.27251 | 37265 ft | 443 kts | 182° |
| 2026-04-16 13:36 | 46.07727 | -3.26876 | 37251 ft | 443 kts | 182° |
| 2026-04-16 13:36 | 46.01565 | -3.26502 | 37252 ft | 443 kts | 182° |
| 2026-04-16 13:37 | 45.95397 | -3.26129 | 37262 ft | 444 kts | 182° |
| 2026-04-16 13:37 | 45.89224 | -3.25756 | 37252 ft | 444 kts | 182° |
| 2026-04-16 13:38 | 45.83054 | -3.25384 | 37266 ft | 444 kts | 182° |
| 2026-04-16 13:38 | 45.76872 | -3.25013 | 37256 ft | 445 kts | 182° |
| 2026-04-16 13:39 | 45.70691 | -3.24642 | 37250 ft | 445 kts | 182° |
| 2026-04-16 13:39 | 45.64502 | -3.24271 | 37261 ft | 445 kts | 182° |
| 2026-04-16 13:40 | 45.58312 | -3.23902 | 37256 ft | 446 kts | 182° |
| 2026-04-16 13:40 | 45.52110 | -3.23532 | 37244 ft | 446 kts | 182° |
| 2026-04-16 13:41 | 45.45901 | -3.23163 | 37256 ft | 447 kts | 182° |
| 2026-04-16 13:41 | 45.39684 | -3.22794 | 37253 ft | 447 kts | 182° |
| 2026-04-16 13:42 | 45.33468 | -3.22426 | 37229 ft | 448 kts | 182° |
| 2026-04-16 13:42 | 45.27240 | -3.22058 | 37248 ft | 448 kts | 182° |
| 2026-04-16 13:43 | 45.21003 | -3.21690 | 37254 ft | 449 kts | 182° |
| 2026-04-16 13:43 | 45.14759 | -3.21323 | 37247 ft | 449 kts | 182° |
| 2026-04-16 13:44 | 45.08506 | -3.20956 | 37242 ft | 450 kts | 182° |
| 2026-04-16 13:44 | 45.03301 | -3.20651 | 37248 ft | 450 kts | 182° |
| 2026-04-16 13:45 | 44.97039 | -3.20285 | 37243 ft | 451 kts | 182° |
| 2026-04-16 13:45 | 44.90762 | -3.19919 | 37236 ft | 452 kts | 182° |
| 2026-04-16 13:46 | 44.84480 | -3.19553 | 37240 ft | 452 kts | 182° |
| 2026-04-16 13:46 | 44.78189 | -3.19188 | 37238 ft | 452 kts | 182° |
| 2026-04-16 13:47 | 44.71895 | -3.18823 | 37234 ft | 453 kts | 182° |
| 2026-04-16 13:47 | 44.65597 | -3.18459 | 37234 ft | 453 kts | 182° |
| 2026-04-16 13:48 | 44.59298 | -3.18095 | 37228 ft | 453 kts | 182° |
| 2026-04-16 13:48 | 44.53006 | -3.17733 | 37218 ft | 453 kts | 182° |
| 2026-04-16 13:49 | 44.46702 | -3.17371 | 37228 ft | 454 kts | 182° |
| 2026-04-16 13:49 | 44.40390 | -3.17009 | 37223 ft | 454 kts | 182° |
| 2026-04-16 13:50 | 44.34071 | -3.16648 | 37217 ft | 455 kts | 182° |
| 2026-04-16 13:50 | 44.27746 | -3.16287 | 37220 ft | 455 kts | 182° |
| 2026-04-16 13:51 | 44.21454 | -3.15928 | 37213 ft | 456 kts | 182° |
| 2026-04-16 13:51 | 44.15114 | -3.15568 | 37204 ft | 456 kts | 182° |
| 2026-04-16 13:52 | 44.08767 | -3.15208 | 37209 ft | 457 kts | 182° |
| 2026-04-16 13:52 | 44.02429 | -3.15060 | 37206 ft | 454 kts | 187° |
| 2026-04-16 13:53 | 43.96128 | -3.15615 | 37189 ft | 454 kts | 189° |
| 2026-04-16 13:53 | 43.89825 | -3.16278 | 37209 ft | 455 kts | 188° |
| 2026-04-16 13:54 | 43.83503 | -3.16890 | 37203 ft | 456 kts | 188° |
| 2026-04-16 13:54 | 43.77167 | -3.17459 | 37193 ft | 457 kts | 188° |
| 2026-04-16 13:55 | 43.70816 | -3.18013 | 37207 ft | 457 kts | 188° |
| 2026-04-16 13:55 | 43.64454 | -3.18565 | 37203 ft | 458 kts | 188° |
| 2026-04-16 13:56 | 43.58083 | -3.19118 | 37176 ft | 459 kts | 188° |
| 2026-04-16 13:56 | 43.51711 | -3.19671 | 37190 ft | 460 kts | 188° |
| 2026-04-16 13:57 | 43.45319 | -3.20224 | 37193 ft | 461 kts | 188° |
| 2026-04-16 13:57 | 43.38915 | -3.20778 | 37190 ft | 461 kts | 188° |
| 2026-04-16 13:58 | 43.29289 | -3.21607 | 37186 ft | 462 kts | 188° |
| 2026-04-16 13:58 | 43.22862 | -3.22160 | 37204 ft | 463 kts | 188° |
| 2026-04-16 13:59 | 43.16429 | -3.22712 | 37170 ft | 464 kts | 188° |
| 2026-04-16 13:59 | 43.09989 | -3.23264 | 37179 ft | 465 kts | 188° |
| 2026-04-16 14:00 | 43.03522 | -3.23817 | 37177 ft | 466 kts | 188° |
| 2026-04-16 14:00 | 42.97088 | -3.24365 | 37149 ft | 466 kts | 188° |
| 2026-04-16 14:01 | 42.90608 | -3.24917 | 37170 ft | 467 kts | 188° |
| 2026-04-16 14:01 | 42.84122 | -3.25467 | 37173 ft | 467 kts | 188° |
| 2026-04-16 14:02 | 42.77633 | -3.26017 | 37158 ft | 467 kts | 188° |
| 2026-04-16 14:02 | 42.71152 | -3.26564 | 37162 ft | 467 kts | 188° |
| 2026-04-16 14:03 | 42.64663 | -3.27112 | 37165 ft | 467 kts | 188° |
| 2026-04-16 14:03 | 42.58177 | -3.27658 | 37171 ft | 467 kts | 188° |
| 2026-04-16 14:04 | 42.51691 | -3.28203 | 37173 ft | 467 kts | 187° |
| 2026-04-16 14:04 | 42.45203 | -3.28747 | 37192 ft | 467 kts | 187° |
| 2026-04-16 14:05 | 42.38712 | -3.29290 | 37199 ft | 467 kts | 187° |
| 2026-04-16 14:05 | 42.32217 | -3.29833 | 37191 ft | 468 kts | 187° |
| 2026-04-16 14:06 | 42.25721 | -3.30374 | 37196 ft | 468 kts | 187° |
| 2026-04-16 14:06 | 42.19209 | -3.30916 | 37190 ft | 469 kts | 187° |
| 2026-04-16 14:07 | 42.12694 | -3.31456 | 37184 ft | 469 kts | 187° |
| 2026-04-16 14:07 | 42.06174 | -3.31996 | 37184 ft | 469 kts | 187° |
| 2026-04-16 14:08 | 41.99651 | -3.32535 | 37187 ft | 470 kts | 187° |
| 2026-04-16 14:08 | 41.93121 | -3.33074 | 37178 ft | 470 kts | 187° |
| 2026-04-16 14:09 | 41.86573 | -3.33614 | 37371 ft | 472 kts | 187° |
| 2026-04-16 14:09 | 41.83301 | -3.33882 | 37616 ft | 470 kts | 187° |
| 2026-04-16 14:09 | 41.80045 | -3.34148 | 37843 ft | 468 kts | 187° |
| 2026-04-16 14:10 | 41.76802 | -3.34413 | 38029 ft | 467 kts | 187° |
| 2026-04-16 14:10 | 41.73555 | -3.34679 | 38210 ft | 467 kts | 187° |
| 2026-04-16 14:10 | 41.70317 | -3.34944 | 38404 ft | 466 kts | 187° |
| 2026-04-16 14:10 | 41.67090 | -3.35208 | 38652 ft | 464 kts | 188° |
| 2026-04-16 14:11 | 41.63880 | -3.35469 | 38931 ft | 460 kts | 188° |
| 2026-04-16 14:11 | 41.60697 | -3.35728 | 39173 ft | 457 kts | 188° |
| 2026-04-16 14:11 | 41.54329 | -3.36248 | 39174 ft | 458 kts | 188° |
| 2026-04-16 14:12 | 41.47998 | -3.36762 | 39163 ft | 454 kts | 188° |
| 2026-04-16 14:12 | 41.41755 | -3.37269 | 39183 ft | 451 kts | 188° |
| 2026-04-16 14:13 | 41.35501 | -3.37776 | 39188 ft | 450 kts | 188° |
| 2026-04-16 14:13 | 41.29262 | -3.38281 | 39166 ft | 449 kts | 188° |
| 2026-04-16 14:14 | 41.23021 | -3.38786 | 39182 ft | 449 kts | 188° |
| 2026-04-16 14:14 | 41.16788 | -3.39302 | 39200 ft | 449 kts | 188° |
| 2026-04-16 14:15 | 41.10524 | -3.39801 | 39186 ft | 451 kts | 188° |
| 2026-04-16 14:15 | 41.04240 | -3.40300 | 39187 ft | 454 kts | 188° |
| 2026-04-16 14:16 | 40.97921 | -3.40804 | 39188 ft | 457 kts | 188° |
| 2026-04-16 14:16 | 40.91563 | -3.41312 | 39189 ft | 459 kts | 188° |
| 2026-04-16 14:17 | 40.85173 | -3.41822 | 39180 ft | 461 kts | 188° |
| 2026-04-16 14:17 | 40.78755 | -3.42333 | 39182 ft | 462 kts | 188° |
| 2026-04-16 14:18 | 40.72333 | -3.42842 | 39183 ft | 463 kts | 188° |
| 2026-04-16 14:18 | 40.65907 | -3.43351 | 39182 ft | 462 kts | 188° |
| 2026-04-16 14:19 | 40.59521 | -3.43854 | 39170 ft | 456 kts | 188° |
| 2026-04-16 14:19 | 40.53224 | -3.44348 | 39179 ft | 452 kts | 188° |
| 2026-04-16 14:20 | 40.46967 | -3.44843 | 39182 ft | 449 kts | 188° |
| 2026-04-16 14:20 | 40.40731 | -3.45336 | 39176 ft | 449 kts | 188° |
| 2026-04-16 14:21 | 40.34542 | -3.45824 | 39188 ft | 449 kts | 188° |
| 2026-04-16 14:21 | 40.28298 | -3.46315 | 39187 ft | 450 kts | 188° |
| 2026-04-16 14:22 | 40.22030 | -3.46806 | 39178 ft | 452 kts | 188° |
| 2026-04-16 14:22 | 40.15748 | -3.47297 | 39189 ft | 453 kts | 188° |
| 2026-04-16 14:23 | 40.09436 | -3.47789 | 39187 ft | 455 kts | 188° |
| 2026-04-16 14:23 | 40.03095 | -3.48283 | 39179 ft | 457 kts | 188° |
| 2026-04-16 14:24 | 39.96740 | -3.48777 | 39163 ft | 458 kts | 188° |
| 2026-04-16 14:24 | 39.90364 | -3.49270 | 39175 ft | 459 kts | 188° |
| 2026-04-16 14:25 | 39.83988 | -3.49763 | 39174 ft | 459 kts | 188° |
| 2026-04-16 14:25 | 39.77611 | -3.50256 | 39173 ft | 459 kts | 188° |
| 2026-04-16 14:26 | 39.71243 | -3.50746 | 39165 ft | 458 kts | 188° |
| 2026-04-16 14:26 | 39.64886 | -3.51235 | 39167 ft | 457 kts | 188° |
| 2026-04-16 14:27 | 39.58590 | -3.51719 | 39168 ft | 456 kts | 188° |
| 2026-04-16 14:27 | 39.52260 | -3.52204 | 39155 ft | 455 kts | 188° |
| 2026-04-16 14:28 | 39.45949 | -3.52688 | 39167 ft | 454 kts | 188° |
| 2026-04-16 14:28 | 39.39640 | -3.53170 | 39167 ft | 454 kts | 188° |
| 2026-04-16 14:29 | 39.33340 | -3.53651 | 39171 ft | 453 kts | 188° |
| 2026-04-16 14:29 | 39.27046 | -3.54128 | 39161 ft | 453 kts | 188° |
| 2026-04-16 14:30 | 39.20757 | -3.54607 | 39170 ft | 453 kts | 188° |
| 2026-04-16 14:30 | 39.14470 | -3.55085 | 39168 ft | 453 kts | 188° |
| 2026-04-16 14:31 | 39.08166 | -3.55564 | 39168 ft | 454 kts | 188° |
| 2026-04-16 14:31 | 39.01855 | -3.56040 | 39160 ft | 454 kts | 188° |
| 2026-04-16 14:32 | 38.95540 | -3.56517 | 39160 ft | 455 kts | 188° |
| 2026-04-16 14:32 | 38.89218 | -3.56993 | 39164 ft | 455 kts | 188° |
| 2026-04-16 14:33 | 38.82887 | -3.57469 | 39151 ft | 456 kts | 188° |
| 2026-04-16 14:33 | 38.77626 | -3.57864 | 39164 ft | 456 kts | 188° |
| 2026-04-16 14:34 | 38.71291 | -3.58339 | 39165 ft | 456 kts | 188° |
| 2026-04-16 14:34 | 38.64956 | -3.58813 | 39166 ft | 456 kts | 188° |
| 2026-04-16 14:35 | 38.58618 | -3.59286 | 39149 ft | 456 kts | 188° |
| 2026-04-16 14:35 | 38.52286 | -3.59758 | 39160 ft | 455 kts | 188° |
| 2026-04-16 14:36 | 38.45960 | -3.60229 | 39150 ft | 455 kts | 188° |
| 2026-04-16 14:36 | 38.39639 | -3.60698 | 39155 ft | 455 kts | 188° |
| 2026-04-16 14:37 | 38.33326 | -3.61167 | 39155 ft | 454 kts | 188° |
| 2026-04-16 14:37 | 38.27025 | -3.61633 | 39159 ft | 453 kts | 188° |
| 2026-04-16 14:38 | 38.20780 | -3.62095 | 39160 ft | 452 kts | 188° |
| 2026-04-16 14:38 | 38.14492 | -3.62556 | 39149 ft | 453 kts | 187° |
| 2026-04-16 14:39 | 38.08174 | -3.62681 | 39148 ft | 454 kts | 184° |
| 2026-04-16 14:39 | 38.01858 | -3.62648 | 39144 ft | 454 kts | 184° |
| 2026-04-16 14:40 | 37.95542 | -3.62658 | 39146 ft | 454 kts | 184° |
| 2026-04-16 14:40 | 37.89220 | -3.62704 | 39136 ft | 454 kts | 184° |
| 2026-04-16 14:41 | 37.82902 | -3.62758 | 39156 ft | 454 kts | 184° |
| 2026-04-16 14:41 | 37.76581 | -3.62810 | 39157 ft | 454 kts | 184° |
| 2026-04-16 14:42 | 37.70255 | -3.62860 | 39159 ft | 455 kts | 184° |
| 2026-04-16 14:42 | 37.67090 | -3.62883 | 39013 ft | 459 kts | 184° |
| 2026-04-16 14:42 | 37.63875 | -3.62910 | 38414 ft | 462 kts | 184° |
| 2026-04-16 14:43 | 37.60670 | -3.62936 | 37836 ft | 459 kts | 184° |
| 2026-04-16 14:43 | 37.57479 | -3.62960 | 37272 ft | 458 kts | 184° |
| 2026-04-16 14:43 | 37.54295 | -3.62984 | 36679 ft | 457 kts | 183° |
| 2026-04-16 14:43 | 37.51114 | -3.63008 | 36092 ft | 457 kts | 183° |
| 2026-04-16 14:44 | 37.47933 | -3.63033 | 35495 ft | 457 kts | 183° |
| 2026-04-16 14:44 | 37.44743 | -3.63001 | 34842 ft | 461 kts | 177° |
| 2026-04-16 14:44 | 37.41621 | -3.62021 | 34156 ft | 468 kts | 156° |
| 2026-04-16 14:44 | 37.38860 | -3.59851 | 33436 ft | 471 kts | 140° |
| 2026-04-16 14:45 | 37.36641 | -3.56828 | 32710 ft | 473 kts | 123° |
| 2026-04-16 14:45 | 37.35071 | -3.53198 | 32031 ft | 473 kts | 116° |
| 2026-04-16 14:45 | 37.33638 | -3.49468 | 31277 ft | 475 kts | 115° |
| 2026-04-16 14:45 | 37.32208 | -3.45711 | 30513 ft | 478 kts | 115° |
| 2026-04-16 14:46 | 37.30755 | -3.41954 | 29598 ft | 481 kts | 116° |
| 2026-04-16 14:46 | 37.29267 | -3.38183 | 28687 ft | 482 kts | 116° |
| 2026-04-16 14:46 | 37.27780 | -3.34464 | 27792 ft | 483 kts | 116° |
| 2026-04-16 14:46 | 37.26263 | -3.30692 | 26850 ft | 485 kts | 116° |
| 2026-04-16 14:47 | 37.24750 | -3.26929 | 26201 ft | 480 kts | 116° |
| 2026-04-16 14:47 | 37.23268 | -3.23202 | 25528 ft | 475 kts | 116° |
| 2026-04-16 14:47 | 37.21809 | -3.19504 | 24874 ft | 471 kts | 116° |
| 2026-04-16 14:47 | 37.20366 | -3.15836 | 24216 ft | 467 kts | 116° |
| 2026-04-16 14:48 | 37.18934 | -3.12198 | 23523 ft | 463 kts | 116° |
| 2026-04-16 14:48 | 37.17511 | -3.08595 | 22785 ft | 459 kts | 116° |
| 2026-04-16 14:48 | 37.16101 | -3.05033 | 22102 ft | 453 kts | 116° |
| 2026-04-16 14:48 | 37.14705 | -3.01514 | 21449 ft | 448 kts | 116° |
| 2026-04-16 14:49 | 37.13327 | -2.98043 | 20802 ft | 443 kts | 116° |
| 2026-04-16 14:49 | 37.11960 | -2.94604 | 20165 ft | 438 kts | 116° |
| 2026-04-16 14:49 | 37.10607 | -2.91204 | 19549 ft | 434 kts | 116° |
| 2026-04-16 14:49 | 37.09267 | -2.87838 | 18941 ft | 430 kts | 116° |
| 2026-04-16 14:50 | 37.07936 | -2.84500 | 18271 ft | 427 kts | 116° |
| 2026-04-16 14:50 | 37.06637 | -2.81174 | 17579 ft | 423 kts | 112° |
| 2026-04-16 14:50 | 37.05729 | -2.77703 | 16938 ft | 417 kts | 102° |
| 2026-04-16 14:50 | 37.05315 | -2.74137 | 16312 ft | 412 kts | 92° |
| 2026-04-16 14:51 | 37.05361 | -2.70583 | 15683 ft | 406 kts | 84° |
| 2026-04-16 14:51 | 37.05571 | -2.67076 | 15102 ft | 402 kts | 85° |
| 2026-04-16 14:51 | 37.05764 | -2.63601 | 14503 ft | 398 kts | 85° |
| 2026-04-16 14:51 | 37.05947 | -2.60153 | 13893 ft | 395 kts | 85° |
| 2026-04-16 14:53 | 37.07080 | -2.36836 | 9439 ft | 378 kts | 85° |
| 2026-04-16 14:53 | 37.07235 | -2.33561 | 8779 ft | 375 kts | 85° |
| 2026-04-16 14:54 | 37.07387 | -2.30314 | 8184 ft | 372 kts | 85° |
| 2026-04-16 14:54 | 37.07535 | -2.27130 | 7944 ft | 359 kts | 85° |
| 2026-04-16 14:54 | 37.07675 | -2.24075 | 7781 ft | 345 kts | 85° |
| 2026-04-16 14:54 | 37.07810 | -2.21133 | 7632 ft | 332 kts | 85° |
| 2026-04-16 14:55 | 37.07940 | -2.18297 | 7496 ft | 320 kts | 84° |
| 2026-04-16 14:55 | 37.08042 | -2.15577 | 7373 ft | 304 kts | 91° |
| 2026-04-16 14:55 | 37.07561 | -2.13090 | 7241 ft | 289 kts | 117° |
| 2026-04-16 14:55 | 37.06349 | -2.11178 | 7124 ft | 275 kts | 140° |
| 2026-04-16 14:56 | 37.04772 | -2.09957 | 7022 ft | 261 kts | 156° |
| 2026-04-16 14:56 | 37.03095 | -2.09390 | 6917 ft | 247 kts | 175° |
| 2026-04-16 14:56 | 37.01406 | -2.09325 | 6758 ft | 241 kts | 180° |
| 2026-04-16 14:56 | 36.99770 | -2.09352 | 6577 ft | 233 kts | 181° |
| 2026-04-16 14:57 | 36.98152 | -2.09381 | 6216 ft | 231 kts | 180° |
| 2026-04-16 14:57 | 36.96561 | -2.09402 | 5904 ft | 226 kts | 180° |
| 2026-04-16 14:57 | 36.94995 | -2.09418 | 5515 ft | 225 kts | 180° |
| 2026-04-16 14:57 | 36.93443 | -2.09431 | 5133 ft | 221 kts | 180° |
| 2026-04-16 14:58 | 36.91949 | -2.09709 | 4761 ft | 214 kts | 207° |
| 2026-04-16 14:58 | 36.90427 | -2.12786 | 3785 ft | 216 kts | 251° |
| 2026-04-16 14:58 | 36.89949 | -2.14560 | 3477 ft | 214 kts | 251° |
| 2026-04-16 14:59 | 36.89496 | -2.16310 | 3191 ft | 210 kts | 252° |
| 2026-04-16 14:59 | 36.89062 | -2.18042 | 2917 ft | 207 kts | 252° |
| 2026-04-16 14:59 | 36.88641 | -2.19747 | 2640 ft | 205 kts | 251° |
| 2026-04-16 14:59 | 36.88224 | -2.21437 | 2375 ft | 201 kts | 252° |
| 2026-04-16 15:00 | 36.87820 | -2.23074 | 2101 ft | 193 kts | 252° |
| 2026-04-16 15:00 | 36.87433 | -2.24648 | 1843 ft | 187 kts | 252° |
| 2026-04-16 15:00 | 36.87060 | -2.26160 | 1630 ft | 180 kts | 253° |
| 2026-04-16 15:00 | 36.86697 | -2.27637 | 1404 ft | 170 kts | 252° |
| 2026-04-16 15:01 | 36.86361 | -2.29007 | 1170 ft | 158 kts | 251° |
| 2026-04-16 15:01 | 36.86051 | -2.30270 | 964 ft | 147 kts | 250° |
| 2026-04-16 15:01 | 36.85762 | -2.31471 | 763 ft | 143 kts | 252° |
| 2026-04-16 15:01 | 36.85464 | -2.32651 | 552 ft | 143 kts | 250° |
| 2026-04-16 15:02 | 36.85167 | -2.33851 | 354 ft | 147 kts | 252° |
| 2026-04-16 15:02 | 36.84863 | -2.35085 | 164 ft | 149 kts | 252° |
| 2026-04-16 15:02 | 36.84569 | -2.36292 | 57 ft | 137 kts | 252° |
| 2026-04-16 15:02 | 36.84334 | -2.37257 | 57 ft | 86 kts | 253° |
| 2026-04-16 15:03 | 36.84199 | -2.37828 | 58 ft | 56 kts | 259° |
| 2026-04-16 15:03 | 36.84219 | -2.38142 | 57 ft | 16 kts | 284° |
| 2026-04-16 15:03 | 36.84281 | -2.38172 | 60 ft | 12 kts | 53° |
| 2026-04-16 15:03 | 36.84307 | -2.38079 | 65 ft | 11 kts | 73° |
| 2026-04-16 15:04 | 36.84329 | -2.37986 | 65 ft | 12 kts | 73° |
| 2026-04-16 15:04 | 36.84357 | -2.37875 | 62 ft | 15 kts | 72° |
| 2026-04-16 15:04 | 36.84393 | -2.37730 | 64 ft | 20 kts | 72° |
| 2026-04-16 15:04 | 36.84437 | -2.37550 | 65 ft | 20 kts | 73° |
| 2026-04-16 15:05 | 36.84531 | -2.37467 | 65 ft | 15 kts | 65° |
| 2026-04-16 15:05 | 36.84562 | -2.37353 | 61 ft | 10 kts | 64° |
| 2026-04-16 15:05 | 36.84583 | -2.37346 | 67 ft | 2 kts | 356° |
| 2026-04-16 15:05 | 36.84604 | -2.37352 | 68 ft | 6 kts | 344° |
| 2026-04-16 15:06 | 36.84643 | -2.37361 | 63 ft | 2 kts | 50° |
| 2026-04-16 15:06 | 36.84633 | -2.37336 | 69 ft | 2 kts | 115° |
| 2026-04-16 15:06 | 36.84631 | -2.37330 | 69 ft | 0 kts | 115° |